sensor_id;sensor_type;location;lat;lon;timestamp;P1;durP1;ratioP1;P2;durP2;ratioP2
4980;SDS011;2507;50.392;7.482;2024-02-21T00:00:32;8.17;;;6.60;;
4980;SDS011;2507;50.392;7.482;2024-02-21T00:02:57;9.97;;;6.27;;
4980;SDS011;2507;50.392;7.482;2024-02-21T00:05:24;13.10;;;6.87;;
4980;SDS011;2507;50.392;7.482;2024-02-21T00:07:49;9.40;;;6.70;;
4980;SDS011;2507;50.392;7.482;2024-02-21T00:10:14;10.77;;;6.63;;
4980;SDS011;2507;50.392;7.482;2024-02-21T00:12:40;12.40;;;6.60;;
4980;SDS011;2507;50.392;7.482;2024-02-21T00:15:05;19.03;;;7.63;;
4980;SDS011;2507;50.392;7.482;2024-02-21T00:17:31;8.23;;;6.97;;
4980;SDS011;2507;50.392;7.482;2024-02-21T00:19:57;13.00;;;6.70;;
4980;SDS011;2507;50.392;7.482;2024-02-21T00:22:22;9.97;;;6.50;;
4980;SDS011;2507;50.392;7.482;2024-02-21T00:24:48;12.83;;;6.53;;
4980;SDS011;2507;50.392;7.482;2024-02-21T00:27:13;13.17;;;7.17;;
4980;SDS011;2507;50.392;7.482;2024-02-21T00:29:38;11.93;;;7.10;;
4980;SDS011;2507;50.392;7.482;2024-02-21T00:32:03;13.30;;;7.17;;
4980;SDS011;2507;50.392;7.482;2024-02-21T00:34:29;13.03;;;6.50;;
4980;SDS011;2507;50.392;7.482;2024-02-21T00:36:54;9.57;;;6.40;;
4980;SDS011;2507;50.392;7.482;2024-02-21T00:39:19;8.27;;;5.87;;
4980;SDS011;2507;50.392;7.482;2024-02-21T00:41:45;9.63;;;6.10;;
4980;SDS011;2507;50.392;7.482;2024-02-21T00:44:10;13.30;;;6.90;;
4980;SDS011;2507;50.392;7.482;2024-02-21T00:46:35;10.80;;;6.87;;
4980;SDS011;2507;50.392;7.482;2024-02-21T00:49:03;9.57;;;6.20;;
4980;SDS011;2507;50.392;7.482;2024-02-21T00:51:28;13.90;;;7.30;;
4980;SDS011;2507;50.392;7.482;2024-02-21T00:53:54;12.33;;;6.47;;
4980;SDS011;2507;50.392;7.482;2024-02-21T00:56:20;9.83;;;6.33;;
4980;SDS011;2507;50.392;7.482;2024-02-21T00:58:45;13.73;;;7.07;;
4980;SDS011;2507;50.392;7.482;2024-02-21T01:01:10;14.40;;;6.63;;
4980;SDS011;2507;50.392;7.482;2024-02-21T01:03:35;10.00;;;6.00;;
4980;SDS011;2507;50.392;7.482;2024-02-21T01:06:00;10.40;;;5.80;;
4980;SDS011;2507;50.392;7.482;2024-02-21T01:08:26;8.67;;;6.23;;
4980;SDS011;2507;50.392;7.482;2024-02-21T01:10:51;9.57;;;6.40;;
4980;SDS011;2507;50.392;7.482;2024-02-21T01:13:17;12.33;;;7.17;;
4980;SDS011;2507;50.392;7.482;2024-02-21T01:15:42;16.50;;;6.80;;
4980;SDS011;2507;50.392;7.482;2024-02-21T01:18:07;11.40;;;5.90;;
4980;SDS011;2507;50.392;7.482;2024-02-21T01:20:33;11.10;;;6.03;;
4980;SDS011;2507;50.392;7.482;2024-02-21T01:22:58;15.00;;;6.37;;
4980;SDS011;2507;50.392;7.482;2024-02-21T01:25:23;11.77;;;6.03;;
4980;SDS011;2507;50.392;7.482;2024-02-21T01:27:48;11.63;;;5.50;;
4980;SDS011;2507;50.392;7.482;2024-02-21T01:30:14;8.03;;;5.30;;
4980;SDS011;2507;50.392;7.482;2024-02-21T01:32:39;8.83;;;5.67;;
4980;SDS011;2507;50.392;7.482;2024-02-21T01:35:04;7.43;;;5.60;;
4980;SDS011;2507;50.392;7.482;2024-02-21T01:37:30;12.70;;;6.20;;
4980;SDS011;2507;50.392;7.482;2024-02-21T01:39:55;10.20;;;6.00;;
4980;SDS011;2507;50.392;7.482;2024-02-21T01:42:20;9.10;;;5.73;;
4980;SDS011;2507;50.392;7.482;2024-02-21T01:44:45;12.67;;;5.63;;
4980;SDS011;2507;50.392;7.482;2024-02-21T01:47:11;13.10;;;6.07;;
4980;SDS011;2507;50.392;7.482;2024-02-21T01:49:39;11.03;;;5.47;;
4980;SDS011;2507;50.392;7.482;2024-02-21T01:52:05;9.03;;;5.90;;
4980;SDS011;2507;50.392;7.482;2024-02-21T01:54:31;11.20;;;6.00;;
4980;SDS011;2507;50.392;7.482;2024-02-21T01:56:57;14.27;;;6.00;;
4980;SDS011;2507;50.392;7.482;2024-02-21T01:59:23;11.87;;;4.77;;
4980;SDS011;2507;50.392;7.482;2024-02-21T02:01:48;8.27;;;5.70;;
4980;SDS011;2507;50.392;7.482;2024-02-21T02:04:16;8.80;;;5.30;;
4980;SDS011;2507;50.392;7.482;2024-02-21T02:06:41;10.03;;;5.23;;
4980;SDS011;2507;50.392;7.482;2024-02-21T02:09:07;9.50;;;5.50;;
4980;SDS011;2507;50.392;7.482;2024-02-21T02:11:32;9.30;;;5.43;;
4980;SDS011;2507;50.392;7.482;2024-02-21T02:13:58;6.87;;;5.00;;
4980;SDS011;2507;50.392;7.482;2024-02-21T02:16:23;8.10;;;5.03;;
4980;SDS011;2507;50.392;7.482;2024-02-21T02:18:48;12.10;;;5.87;;
4980;SDS011;2507;50.392;7.482;2024-02-21T02:21:16;10.57;;;4.93;;
4980;SDS011;2507;50.392;7.482;2024-02-21T02:23:51;13.47;;;5.77;;
4980;SDS011;2507;50.392;7.482;2024-02-21T02:26:16;10.90;;;5.37;;
4980;SDS011;2507;50.392;7.482;2024-02-21T02:28:42;16.93;;;5.90;;
4980;SDS011;2507;50.392;7.482;2024-02-21T02:31:07;10.60;;;5.60;;
4980;SDS011;2507;50.392;7.482;2024-02-21T02:33:32;7.13;;;5.00;;
4980;SDS011;2507;50.392;7.482;2024-02-21T02:35:57;12.23;;;5.13;;
4980;SDS011;2507;50.392;7.482;2024-02-21T02:38:23;9.67;;;4.67;;
4980;SDS011;2507;50.392;7.482;2024-02-21T02:40:49;12.77;;;5.97;;
4980;SDS011;2507;50.392;7.482;2024-02-21T02:43:14;11.03;;;5.23;;
4980;SDS011;2507;50.392;7.482;2024-02-21T02:45:40;9.87;;;5.10;;
4980;SDS011;2507;50.392;7.482;2024-02-21T02:48:05;13.27;;;6.00;;
4980;SDS011;2507;50.392;7.482;2024-02-21T02:50:31;11.50;;;4.57;;
4980;SDS011;2507;50.392;7.482;2024-02-21T02:52:56;10.50;;;4.83;;
4980;SDS011;2507;50.392;7.482;2024-02-21T02:55:21;13.67;;;5.27;;
4980;SDS011;2507;50.392;7.482;2024-02-21T02:57:47;10.23;;;5.10;;
4980;SDS011;2507;50.392;7.482;2024-02-21T03:00:13;9.23;;;4.80;;
4980;SDS011;2507;50.392;7.482;2024-02-21T03:02:39;11.53;;;5.00;;
4980;SDS011;2507;50.392;7.482;2024-02-21T03:05:13;11.27;;;5.40;;
4980;SDS011;2507;50.392;7.482;2024-02-21T03:07:42;14.43;;;5.83;;
4980;SDS011;2507;50.392;7.482;2024-02-21T03:10:08;13.70;;;4.97;;
4980;SDS011;2507;50.392;7.482;2024-02-21T03:12:34;10.97;;;5.00;;
4980;SDS011;2507;50.392;7.482;2024-02-21T03:15:00;10.37;;;5.17;;
4980;SDS011;2507;50.392;7.482;2024-02-21T03:17:25;7.40;;;5.00;;
4980;SDS011;2507;50.392;7.482;2024-02-21T03:19:53;10.00;;;5.00;;
4980;SDS011;2507;50.392;7.482;2024-02-21T03:22:20;7.33;;;4.60;;
4980;SDS011;2507;50.392;7.482;2024-02-21T03:24:46;11.17;;;5.80;;
4980;SDS011;2507;50.392;7.482;2024-02-21T03:27:11;8.87;;;4.80;;
4980;SDS011;2507;50.392;7.482;2024-02-21T03:29:36;11.23;;;6.03;;
4980;SDS011;2507;50.392;7.482;2024-02-21T03:32:01;12.03;;;5.60;;
4980;SDS011;2507;50.392;7.482;2024-02-21T03:34:27;13.97;;;4.90;;
4980;SDS011;2507;50.392;7.482;2024-02-21T03:36:52;8.87;;;4.67;;
4980;SDS011;2507;50.392;7.482;2024-02-21T03:39:18;8.30;;;4.53;;
4980;SDS011;2507;50.392;7.482;2024-02-21T03:41:43;7.93;;;4.70;;
4980;SDS011;2507;50.392;7.482;2024-02-21T03:44:08;8.40;;;4.83;;
4980;SDS011;2507;50.392;7.482;2024-02-21T03:46:34;9.40;;;5.30;;
4980;SDS011;2507;50.392;7.482;2024-02-21T03:48:59;12.57;;;5.33;;
4980;SDS011;2507;50.392;7.482;2024-02-21T03:51:25;24.87;;;5.50;;
4980;SDS011;2507;50.392;7.482;2024-02-21T03:53:50;11.13;;;5.20;;
4980;SDS011;2507;50.392;7.482;2024-02-21T03:56:16;8.20;;;5.40;;
4980;SDS011;2507;50.392;7.482;2024-02-21T03:58:41;11.17;;;5.03;;
4980;SDS011;2507;50.392;7.482;2024-02-21T04:01:06;9.87;;;4.80;;
4980;SDS011;2507;50.392;7.482;2024-02-21T04:03:32;14.47;;;5.10;;
4980;SDS011;2507;50.392;7.482;2024-02-21T04:05:57;10.17;;;5.00;;
4980;SDS011;2507;50.392;7.482;2024-02-21T04:08:22;6.03;;;4.40;;
4980;SDS011;2507;50.392;7.482;2024-02-21T04:10:48;10.10;;;4.90;;
4980;SDS011;2507;50.392;7.482;2024-02-21T04:13:13;9.20;;;4.43;;
4980;SDS011;2507;50.392;7.482;2024-02-21T04:15:38;8.33;;;4.63;;
4980;SDS011;2507;50.392;7.482;2024-02-21T04:18:04;8.77;;;4.23;;
4980;SDS011;2507;50.392;7.482;2024-02-21T04:20:29;7.27;;;4.97;;
4980;SDS011;2507;50.392;7.482;2024-02-21T04:22:55;9.33;;;4.50;;
4980;SDS011;2507;50.392;7.482;2024-02-21T04:25:20;9.23;;;4.73;;
4980;SDS011;2507;50.392;7.482;2024-02-21T04:27:45;11.73;;;3.97;;
4980;SDS011;2507;50.392;7.482;2024-02-21T04:30:11;9.20;;;5.37;;
4980;SDS011;2507;50.392;7.482;2024-02-21T04:32:36;8.83;;;4.63;;
4980;SDS011;2507;50.392;7.482;2024-02-21T04:35:02;7.23;;;4.00;;
4980;SDS011;2507;50.392;7.482;2024-02-21T04:37:27;12.57;;;5.23;;
4980;SDS011;2507;50.392;7.482;2024-02-21T04:39:52;10.53;;;5.07;;
4980;SDS011;2507;50.392;7.482;2024-02-21T04:42:18;6.27;;;3.30;;
4980;SDS011;2507;50.392;7.482;2024-02-21T04:44:43;7.37;;;4.30;;
4980;SDS011;2507;50.392;7.482;2024-02-21T04:47:08;4.90;;;3.87;;
4980;SDS011;2507;50.392;7.482;2024-02-21T04:49:34;7.00;;;3.60;;
4980;SDS011;2507;50.392;7.482;2024-02-21T04:51:59;11.30;;;4.13;;
4980;SDS011;2507;50.392;7.482;2024-02-21T04:54:25;9.10;;;3.80;;
4980;SDS011;2507;50.392;7.482;2024-02-21T04:56:50;11.03;;;4.30;;
4980;SDS011;2507;50.392;7.482;2024-02-21T04:59:16;10.30;;;4.63;;
4980;SDS011;2507;50.392;7.482;2024-02-21T05:01:41;9.20;;;4.23;;
4980;SDS011;2507;50.392;7.482;2024-02-21T05:04:07;6.23;;;3.50;;
4980;SDS011;2507;50.392;7.482;2024-02-21T05:06:32;8.40;;;4.20;;
4980;SDS011;2507;50.392;7.482;2024-02-21T05:09:01;7.33;;;3.90;;
4980;SDS011;2507;50.392;7.482;2024-02-21T05:11:27;8.70;;;4.40;;
4980;SDS011;2507;50.392;7.482;2024-02-21T05:13:52;7.50;;;3.90;;
4980;SDS011;2507;50.392;7.482;2024-02-21T05:16:17;11.37;;;5.37;;
4980;SDS011;2507;50.392;7.482;2024-02-21T05:18:44;9.03;;;4.30;;
4980;SDS011;2507;50.392;7.482;2024-02-21T05:21:09;6.60;;;4.40;;
4980;SDS011;2507;50.392;7.482;2024-02-21T05:23:34;7.17;;;4.07;;
4980;SDS011;2507;50.392;7.482;2024-02-21T05:26:00;9.30;;;4.53;;
4980;SDS011;2507;50.392;7.482;2024-02-21T05:28:25;10.33;;;4.67;;
4980;SDS011;2507;50.392;7.482;2024-02-21T05:30:50;7.23;;;3.97;;
4980;SDS011;2507;50.392;7.482;2024-02-21T05:33:15;11.43;;;5.30;;
4980;SDS011;2507;50.392;7.482;2024-02-21T05:35:46;5.40;;;4.30;;
4980;SDS011;2507;50.392;7.482;2024-02-21T05:38:13;8.20;;;4.47;;
4980;SDS011;2507;50.392;7.482;2024-02-21T05:40:38;9.30;;;5.10;;
4980;SDS011;2507;50.392;7.482;2024-02-21T05:43:03;7.07;;;4.13;;
4980;SDS011;2507;50.392;7.482;2024-02-21T05:45:29;7.10;;;4.23;;
4980;SDS011;2507;50.392;7.482;2024-02-21T05:47:54;12.87;;;4.97;;
4980;SDS011;2507;50.392;7.482;2024-02-21T05:50:19;11.13;;;4.83;;
4980;SDS011;2507;50.392;7.482;2024-02-21T05:52:46;9.40;;;5.10;;
4980;SDS011;2507;50.392;7.482;2024-02-21T05:55:11;8.50;;;4.80;;
4980;SDS011;2507;50.392;7.482;2024-02-21T05:57:38;10.63;;;5.27;;
4980;SDS011;2507;50.392;7.482;2024-02-21T06:00:04;13.67;;;5.27;;
4980;SDS011;2507;50.392;7.482;2024-02-21T06:02:30;7.10;;;4.40;;
4980;SDS011;2507;50.392;7.482;2024-02-21T06:04:56;10.07;;;4.70;;
4980;SDS011;2507;50.392;7.482;2024-02-21T06:07:21;9.43;;;4.63;;
4980;SDS011;2507;50.392;7.482;2024-02-21T06:09:46;7.33;;;5.37;;
4980;SDS011;2507;50.392;7.482;2024-02-21T06:12:11;12.40;;;5.90;;
4980;SDS011;2507;50.392;7.482;2024-02-21T06:14:37;8.77;;;4.60;;
4980;SDS011;2507;50.392;7.482;2024-02-21T06:17:02;10.70;;;5.50;;
4980;SDS011;2507;50.392;7.482;2024-02-21T06:19:27;9.43;;;5.60;;
4980;SDS011;2507;50.392;7.482;2024-02-21T06:21:53;11.53;;;5.13;;
4980;SDS011;2507;50.392;7.482;2024-02-21T06:24:18;9.30;;;5.00;;
4980;SDS011;2507;50.392;7.482;2024-02-21T06:26:43;7.13;;;5.47;;
4980;SDS011;2507;50.392;7.482;2024-02-21T06:29:09;6.80;;;4.60;;
4980;SDS011;2507;50.392;7.482;2024-02-21T06:31:35;13.03;;;5.47;;
4980;SDS011;2507;50.392;7.482;2024-02-21T06:34:00;7.10;;;4.17;;
4980;SDS011;2507;50.392;7.482;2024-02-21T06:36:25;12.23;;;6.00;;
4980;SDS011;2507;50.392;7.482;2024-02-21T06:38:51;9.80;;;5.57;;
4980;SDS011;2507;50.392;7.482;2024-02-21T06:41:16;7.20;;;4.87;;
4980;SDS011;2507;50.392;7.482;2024-02-21T06:43:45;9.33;;;5.23;;
4980;SDS011;2507;50.392;7.482;2024-02-21T06:46:11;13.30;;;5.43;;
4980;SDS011;2507;50.392;7.482;2024-02-21T06:48:37;13.33;;;4.70;;
4980;SDS011;2507;50.392;7.482;2024-02-21T06:51:02;13.23;;;5.97;;
4980;SDS011;2507;50.392;7.482;2024-02-21T06:53:28;6.73;;;4.83;;
4980;SDS011;2507;50.392;7.482;2024-02-21T06:55:53;16.13;;;5.37;;
4980;SDS011;2507;50.392;7.482;2024-02-21T06:58:19;10.90;;;5.00;;
4980;SDS011;2507;50.392;7.482;2024-02-21T07:00:44;7.40;;;5.00;;
4980;SDS011;2507;50.392;7.482;2024-02-21T07:03:09;12.60;;;5.67;;
4980;SDS011;2507;50.392;7.482;2024-02-21T07:05:35;10.50;;;6.00;;
4980;SDS011;2507;50.392;7.482;2024-02-21T07:08:00;7.67;;;5.07;;
4980;SDS011;2507;50.392;7.482;2024-02-21T07:10:25;12.93;;;6.07;;
4980;SDS011;2507;50.392;7.482;2024-02-21T07:12:52;6.90;;;4.40;;
4980;SDS011;2507;50.392;7.482;2024-02-21T07:15:18;5.57;;;5.07;;
4980;SDS011;2507;50.392;7.482;2024-02-21T07:17:43;10.30;;;5.37;;
4980;SDS011;2507;50.392;7.482;2024-02-21T07:20:08;16.07;;;5.80;;
4980;SDS011;2507;50.392;7.482;2024-02-21T07:22:34;8.13;;;4.90;;
4980;SDS011;2507;50.392;7.482;2024-02-21T07:25:00;8.70;;;5.03;;
4980;SDS011;2507;50.392;7.482;2024-02-21T07:27:25;10.57;;;5.10;;
4980;SDS011;2507;50.392;7.482;2024-02-21T07:29:53;6.23;;;4.60;;
4980;SDS011;2507;50.392;7.482;2024-02-21T07:32:19;10.83;;;5.20;;
4980;SDS011;2507;50.392;7.482;2024-02-21T07:34:44;8.07;;;4.40;;
4980;SDS011;2507;50.392;7.482;2024-02-21T07:37:09;10.07;;;4.90;;
4980;SDS011;2507;50.392;7.482;2024-02-21T07:39:38;5.23;;;4.20;;
4980;SDS011;2507;50.392;7.482;2024-02-21T07:42:03;8.60;;;4.83;;
4980;SDS011;2507;50.392;7.482;2024-02-21T07:44:29;7.50;;;5.00;;
4980;SDS011;2507;50.392;7.482;2024-02-21T07:46:54;7.93;;;4.20;;
4980;SDS011;2507;50.392;7.482;2024-02-21T07:49:19;8.43;;;5.03;;
4980;SDS011;2507;50.392;7.482;2024-02-21T07:51:45;9.13;;;4.93;;
4980;SDS011;2507;50.392;7.482;2024-02-21T07:54:10;8.57;;;5.77;;
4980;SDS011;2507;50.392;7.482;2024-02-21T07:56:35;12.60;;;6.53;;
4980;SDS011;2507;50.392;7.482;2024-02-21T07:59:00;11.47;;;5.90;;
4980;SDS011;2507;50.392;7.482;2024-02-21T08:01:26;9.60;;;5.60;;
4980;SDS011;2507;50.392;7.482;2024-02-21T08:03:51;9.23;;;5.17;;
4980;SDS011;2507;50.392;7.482;2024-02-21T08:06:16;8.33;;;4.63;;
4980;SDS011;2507;50.392;7.482;2024-02-21T08:08:41;7.60;;;4.53;;
4980;SDS011;2507;50.392;7.482;2024-02-21T08:11:07;7.83;;;4.40;;
4980;SDS011;2507;50.392;7.482;2024-02-21T08:13:32;11.67;;;7.23;;
4980;SDS011;2507;50.392;7.482;2024-02-21T08:15:57;15.63;;;9.30;;
4980;SDS011;2507;50.392;7.482;2024-02-21T08:18:23;12.90;;;6.03;;
4980;SDS011;2507;50.392;7.482;2024-02-21T08:20:48;11.90;;;5.07;;
4980;SDS011;2507;50.392;7.482;2024-02-21T08:23:16;8.13;;;5.20;;
4980;SDS011;2507;50.392;7.482;2024-02-21T08:25:43;10.47;;;6.30;;
4980;SDS011;2507;50.392;7.482;2024-02-21T08:28:08;14.63;;;6.00;;
4980;SDS011;2507;50.392;7.482;2024-02-21T08:30:33;8.23;;;4.87;;
4980;SDS011;2507;50.392;7.482;2024-02-21T08:32:59;10.07;;;4.20;;
4980;SDS011;2507;50.392;7.482;2024-02-21T08:35:24;10.03;;;4.93;;
4980;SDS011;2507;50.392;7.482;2024-02-21T08:37:49;8.70;;;4.57;;
4980;SDS011;2507;50.392;7.482;2024-02-21T08:40:15;13.60;;;7.50;;
4980;SDS011;2507;50.392;7.482;2024-02-21T08:42:44;8.20;;;4.30;;
4980;SDS011;2507;50.392;7.482;2024-02-21T08:45:10;13.13;;;6.73;;
4980;SDS011;2507;50.392;7.482;2024-02-21T08:47:35;13.33;;;5.13;;
4980;SDS011;2507;50.392;7.482;2024-02-21T08:50:04;9.67;;;4.63;;
4980;SDS011;2507;50.392;7.482;2024-02-21T08:52:30;9.83;;;4.67;;
4980;SDS011;2507;50.392;7.482;2024-02-21T08:54:56;10.60;;;5.73;;
4980;SDS011;2507;50.392;7.482;2024-02-21T08:57:21;11.60;;;4.60;;
4980;SDS011;2507;50.392;7.482;2024-02-21T08:59:46;9.43;;;5.07;;
4980;SDS011;2507;50.392;7.482;2024-02-21T09:02:12;12.40;;;4.57;;
4980;SDS011;2507;50.392;7.482;2024-02-21T09:04:37;11.23;;;5.13;;
4980;SDS011;2507;50.392;7.482;2024-02-21T09:07:03;9.87;;;5.07;;
4980;SDS011;2507;50.392;7.482;2024-02-21T09:09:28;7.33;;;4.40;;
4980;SDS011;2507;50.392;7.482;2024-02-21T09:11:53;9.47;;;5.00;;
4980;SDS011;2507;50.392;7.482;2024-02-21T09:14:19;13.77;;;5.73;;
4980;SDS011;2507;50.392;7.482;2024-02-21T09:16:44;9.67;;;5.37;;
4980;SDS011;2507;50.392;7.482;2024-02-21T09:19:10;10.60;;;5.40;;
4980;SDS011;2507;50.392;7.482;2024-02-21T09:21:36;8.87;;;4.17;;
4980;SDS011;2507;50.392;7.482;2024-02-21T09:24:02;9.23;;;4.73;;
4980;SDS011;2507;50.392;7.482;2024-02-21T09:26:28;11.13;;;5.40;;
4980;SDS011;2507;50.392;7.482;2024-02-21T09:28:53;10.00;;;6.27;;
4980;SDS011;2507;50.392;7.482;2024-02-21T09:31:18;10.90;;;4.73;;
4980;SDS011;2507;50.392;7.482;2024-02-21T09:33:44;8.30;;;4.77;;
4980;SDS011;2507;50.392;7.482;2024-02-21T09:36:10;7.50;;;3.97;;
4980;SDS011;2507;50.392;7.482;2024-02-21T09:38:35;10.53;;;4.63;;
4980;SDS011;2507;50.392;7.482;2024-02-21T09:41:06;10.60;;;4.97;;
4980;SDS011;2507;50.392;7.482;2024-02-21T09:43:39;10.70;;;4.70;;
4980;SDS011;2507;50.392;7.482;2024-02-21T09:46:06;13.80;;;5.00;;
4980;SDS011;2507;50.392;7.482;2024-02-21T09:48:39;13.87;;;8.20;;
4980;SDS011;2507;50.392;7.482;2024-02-21T09:51:15;11.13;;;5.03;;
4980;SDS011;2507;50.392;7.482;2024-02-21T09:53:41;4.90;;;3.40;;
4980;SDS011;2507;50.392;7.482;2024-02-21T09:56:08;8.43;;;4.60;;
4980;SDS011;2507;50.392;7.482;2024-02-21T09:58:34;10.67;;;4.77;;
4980;SDS011;2507;50.392;7.482;2024-02-21T10:00:59;8.70;;;4.37;;
4980;SDS011;2507;50.392;7.482;2024-02-21T10:03:25;8.70;;;4.80;;
4980;SDS011;2507;50.392;7.482;2024-02-21T10:05:50;7.23;;;4.87;;
4980;SDS011;2507;50.392;7.482;2024-02-21T10:08:16;7.77;;;4.77;;
4980;SDS011;2507;50.392;7.482;2024-02-21T10:10:42;9.60;;;5.37;;
4980;SDS011;2507;50.392;7.482;2024-02-21T10:13:09;7.17;;;4.43;;
4980;SDS011;2507;50.392;7.482;2024-02-21T10:15:35;9.83;;;5.17;;
4980;SDS011;2507;50.392;7.482;2024-02-21T10:18:01;13.07;;;3.70;;
4980;SDS011;2507;50.392;7.482;2024-02-21T10:20:28;7.40;;;4.03;;
4980;SDS011;2507;50.392;7.482;2024-02-21T10:23:00;7.90;;;3.40;;
4980;SDS011;2507;50.392;7.482;2024-02-21T10:25:33;14.20;;;4.70;;
4980;SDS011;2507;50.392;7.482;2024-02-21T10:27:59;7.07;;;4.03;;
4980;SDS011;2507;50.392;7.482;2024-02-21T10:30:24;22.27;;;10.17;;
4980;SDS011;2507;50.392;7.482;2024-02-21T10:32:50;9.27;;;5.40;;
4980;SDS011;2507;50.392;7.482;2024-02-21T10:35:25;12.00;;;4.90;;
4980;SDS011;2507;50.392;7.482;2024-02-21T10:37:51;6.53;;;4.10;;
4980;SDS011;2507;50.392;7.482;2024-02-21T10:40:20;5.13;;;3.70;;
4980;SDS011;2507;50.392;7.482;2024-02-21T10:42:46;9.50;;;3.83;;
4980;SDS011;2507;50.392;7.482;2024-02-21T10:45:13;7.53;;;3.83;;
4980;SDS011;2507;50.392;7.482;2024-02-21T10:47:39;8.73;;;4.00;;
4980;SDS011;2507;50.392;7.482;2024-02-21T10:50:07;7.10;;;3.60;;
4980;SDS011;2507;50.392;7.482;2024-02-21T10:52:44;7.60;;;3.70;;
4980;SDS011;2507;50.392;7.482;2024-02-21T10:55:21;10.03;;;5.17;;
4980;SDS011;2507;50.392;7.482;2024-02-21T10:58:02;7.70;;;4.53;;
4980;SDS011;2507;50.392;7.482;2024-02-21T11:00:28;11.13;;;4.17;;
4980;SDS011;2507;50.392;7.482;2024-02-21T11:02:56;6.73;;;3.97;;
4980;SDS011;2507;50.392;7.482;2024-02-21T11:05:22;8.07;;;3.50;;
4980;SDS011;2507;50.392;7.482;2024-02-21T11:07:49;4.90;;;3.57;;
4980;SDS011;2507;50.392;7.482;2024-02-21T11:10:24;5.93;;;3.30;;
4980;SDS011;2507;50.392;7.482;2024-02-21T11:13:09;7.67;;;2.80;;
4980;SDS011;2507;50.392;7.482;2024-02-21T11:15:34;12.97;;;4.50;;
4980;SDS011;2507;50.392;7.482;2024-02-21T11:18:00;5.93;;;2.90;;
4980;SDS011;2507;50.392;7.482;2024-02-21T11:20:34;6.27;;;2.20;;
4980;SDS011;2507;50.392;7.482;2024-02-21T11:23:00;5.90;;;2.80;;
4980;SDS011;2507;50.392;7.482;2024-02-21T11:25:26;5.30;;;3.37;;
4980;SDS011;2507;50.392;7.482;2024-02-21T11:27:59;4.93;;;3.10;;
4980;SDS011;2507;50.392;7.482;2024-02-21T11:30:31;9.70;;;3.07;;
4980;SDS011;2507;50.392;7.482;2024-02-21T11:33:03;12.00;;;4.27;;
4980;SDS011;2507;50.392;7.482;2024-02-21T11:35:31;8.37;;;3.60;;
4980;SDS011;2507;50.392;7.482;2024-02-21T11:38:07;8.93;;;3.63;;
4980;SDS011;2507;50.392;7.482;2024-02-21T11:40:34;6.87;;;3.47;;
4980;SDS011;2507;50.392;7.482;2024-02-21T11:42:59;4.80;;;2.77;;
4980;SDS011;2507;50.392;7.482;2024-02-21T11:45:25;8.13;;;3.17;;
4980;SDS011;2507;50.392;7.482;2024-02-21T11:47:52;7.27;;;3.67;;
4980;SDS011;2507;50.392;7.482;2024-02-21T11:50:17;5.33;;;2.90;;
4980;SDS011;2507;50.392;7.482;2024-02-21T11:52:43;7.03;;;3.80;;
4980;SDS011;2507;50.392;7.482;2024-02-21T11:55:08;5.43;;;4.00;;
4980;SDS011;2507;50.392;7.482;2024-02-21T11:57:33;9.23;;;3.93;;
4980;SDS011;2507;50.392;7.482;2024-02-21T12:00:10;5.27;;;3.50;;
4980;SDS011;2507;50.392;7.482;2024-02-21T12:02:49;6.67;;;3.23;;
4980;SDS011;2507;50.392;7.482;2024-02-21T12:05:15;5.43;;;2.50;;
4980;SDS011;2507;50.392;7.482;2024-02-21T12:07:41;7.23;;;3.00;;
4980;SDS011;2507;50.392;7.482;2024-02-21T12:10:09;8.90;;;2.90;;
4980;SDS011;2507;50.392;7.482;2024-02-21T12:12:39;4.07;;;2.63;;
4980;SDS011;2507;50.392;7.482;2024-02-21T12:15:05;10.27;;;3.47;;
4980;SDS011;2507;50.392;7.482;2024-02-21T12:17:34;5.47;;;2.77;;
4980;SDS011;2507;50.392;7.482;2024-02-21T12:20:01;5.67;;;2.60;;
4980;SDS011;2507;50.392;7.482;2024-02-21T12:22:30;6.10;;;2.67;;
4980;SDS011;2507;50.392;7.482;2024-02-21T12:24:57;7.83;;;2.83;;
4980;SDS011;2507;50.392;7.482;2024-02-21T12:27:23;7.47;;;2.30;;
4980;SDS011;2507;50.392;7.482;2024-02-21T12:29:48;7.37;;;3.00;;
4980;SDS011;2507;50.392;7.482;2024-02-21T12:32:14;6.30;;;2.83;;
4980;SDS011;2507;50.392;7.482;2024-02-21T12:34:39;7.97;;;2.83;;
4980;SDS011;2507;50.392;7.482;2024-02-21T12:37:04;7.83;;;2.83;;
4980;SDS011;2507;50.392;7.482;2024-02-21T12:39:30;11.93;;;2.40;;
4980;SDS011;2507;50.392;7.482;2024-02-21T12:41:56;4.00;;;2.40;;
4980;SDS011;2507;50.392;7.482;2024-02-21T12:44:22;9.07;;;3.10;;
4980;SDS011;2507;50.392;7.482;2024-02-21T12:46:47;6.70;;;3.13;;
4980;SDS011;2507;50.392;7.482;2024-02-21T12:49:16;6.40;;;2.27;;
4980;SDS011;2507;50.392;7.482;2024-02-21T12:51:42;4.37;;;2.27;;
4980;SDS011;2507;50.392;7.482;2024-02-21T12:54:08;4.80;;;2.17;;
4980;SDS011;2507;50.392;7.482;2024-02-21T12:56:36;8.60;;;2.37;;
4980;SDS011;2507;50.392;7.482;2024-02-21T12:59:01;4.57;;;2.40;;
4980;SDS011;2507;50.392;7.482;2024-02-21T13:01:26;4.00;;;2.33;;
4980;SDS011;2507;50.392;7.482;2024-02-21T13:03:52;5.17;;;2.97;;
4980;SDS011;2507;50.392;7.482;2024-02-21T13:06:19;5.47;;;2.70;;
4980;SDS011;2507;50.392;7.482;2024-02-21T13:08:44;6.93;;;2.67;;
4980;SDS011;2507;50.392;7.482;2024-02-21T13:11:10;8.50;;;2.70;;
4980;SDS011;2507;50.392;7.482;2024-02-21T13:13:37;5.50;;;2.40;;
4980;SDS011;2507;50.392;7.482;2024-02-21T13:16:03;7.30;;;2.13;;
4980;SDS011;2507;50.392;7.482;2024-02-21T13:18:28;5.53;;;2.80;;
4980;SDS011;2507;50.392;7.482;2024-02-21T13:20:54;4.20;;;2.23;;
4980;SDS011;2507;50.392;7.482;2024-02-21T13:23:19;5.17;;;2.87;;
4980;SDS011;2507;50.392;7.482;2024-02-21T13:25:46;5.10;;;3.20;;
4980;SDS011;2507;50.392;7.482;2024-02-21T13:28:12;5.03;;;2.50;;
4980;SDS011;2507;50.392;7.482;2024-02-21T13:30:38;6.67;;;2.67;;
4980;SDS011;2507;50.392;7.482;2024-02-21T13:33:03;8.10;;;2.47;;
4980;SDS011;2507;50.392;7.482;2024-02-21T13:35:29;11.97;;;3.27;;
4980;SDS011;2507;50.392;7.482;2024-02-21T13:37:54;6.20;;;2.90;;
4980;SDS011;2507;50.392;7.482;2024-02-21T13:40:19;8.13;;;2.40;;
4980;SDS011;2507;50.392;7.482;2024-02-21T13:42:44;5.40;;;2.50;;
4980;SDS011;2507;50.392;7.482;2024-02-21T13:45:10;6.00;;;2.67;;
4980;SDS011;2507;50.392;7.482;2024-02-21T13:47:35;7.23;;;2.37;;
4980;SDS011;2507;50.392;7.482;2024-02-21T13:50:04;5.97;;;2.97;;
4980;SDS011;2507;50.392;7.482;2024-02-21T13:52:30;4.73;;;2.23;;
4980;SDS011;2507;50.392;7.482;2024-02-21T13:54:56;7.70;;;1.90;;
4980;SDS011;2507;50.392;7.482;2024-02-21T13:57:21;7.03;;;2.33;;
4980;SDS011;2507;50.392;7.482;2024-02-21T13:59:47;7.50;;;2.13;;
4980;SDS011;2507;50.392;7.482;2024-02-21T14:02:12;7.80;;;2.07;;
4980;SDS011;2507;50.392;7.482;2024-02-21T14:04:38;5.87;;;1.97;;
4980;SDS011;2507;50.392;7.482;2024-02-21T14:07:03;2.73;;;1.70;;
4980;SDS011;2507;50.392;7.482;2024-02-21T14:09:29;7.03;;;1.80;;
4980;SDS011;2507;50.392;7.482;2024-02-21T14:11:54;4.00;;;1.90;;
4980;SDS011;2507;50.392;7.482;2024-02-21T14:14:20;2.90;;;1.87;;
4980;SDS011;2507;50.392;7.482;2024-02-21T14:16:45;5.20;;;1.77;;
4980;SDS011;2507;50.392;7.482;2024-02-21T14:19:12;7.73;;;2.27;;
4980;SDS011;2507;50.392;7.482;2024-02-21T14:21:38;5.93;;;1.57;;
4980;SDS011;2507;50.392;7.482;2024-02-21T14:24:06;2.67;;;1.90;;
4980;SDS011;2507;50.392;7.482;2024-02-21T14:26:32;3.30;;;1.47;;
4980;SDS011;2507;50.392;7.482;2024-02-21T14:28:57;4.60;;;1.87;;
4980;SDS011;2507;50.392;7.482;2024-02-21T14:31:23;5.33;;;2.10;;
4980;SDS011;2507;50.392;7.482;2024-02-21T14:33:48;4.37;;;1.80;;
4980;SDS011;2507;50.392;7.482;2024-02-21T14:36:13;4.00;;;1.90;;
4980;SDS011;2507;50.392;7.482;2024-02-21T14:38:40;6.27;;;2.23;;
4980;SDS011;2507;50.392;7.482;2024-02-21T14:41:06;7.67;;;2.10;;
4980;SDS011;2507;50.392;7.482;2024-02-21T14:43:31;8.60;;;1.83;;
4980;SDS011;2507;50.392;7.482;2024-02-21T14:45:57;4.80;;;1.70;;
4980;SDS011;2507;50.392;7.482;2024-02-21T14:48:22;4.60;;;1.93;;
4980;SDS011;2507;50.392;7.482;2024-02-21T14:50:47;4.33;;;1.80;;
4980;SDS011;2507;50.392;7.482;2024-02-21T14:53:12;2.87;;;1.87;;
4980;SDS011;2507;50.392;7.482;2024-02-21T14:55:38;3.83;;;2.33;;
4980;SDS011;2507;50.392;7.482;2024-02-21T14:58:05;5.70;;;2.00;;
4980;SDS011;2507;50.392;7.482;2024-02-21T15:00:32;6.00;;;1.77;;
4980;SDS011;2507;50.392;7.482;2024-02-21T15:02:57;3.23;;;1.80;;